Reston, Virginia
Current Conditions -  °F | °C
As of 8:52 PM on Wednesday 22 Oct 2014 (Local Time) from KIAD Reporting Station
Overcast Overcast  
Wind Chill: 53°   Ceiling: 4000
Heat Index: 53°   Visibility: 10mi
Dew Point: 44°   Wind: 14mph
Humidity: 71%   Direction: 320°NW
Pressure: 29.97"   Gusts: NA
Location:  38.96°N, 77.35°W
Report Text: KIAD 230052Z 32012KT 10SM OVC040 12/07 A2997 RMK AO2 SLP149 T01170067
Loading
Personal Weather Stations






























Interactive Weather Map New forecast layout! Learn more

10-Day Weather Forecast

Advertisements
Track Severe Weather on mobile